createdAt,value
2017-11-16T00:02:19.888Z,10.13
2017-11-16T00:04:54.329Z,10.88
2017-11-16T00:07:28.901Z,10.43
2017-11-16T00:10:03.417Z,10.13
2017-11-16T00:12:37.937Z,11.73
2017-11-16T00:15:12.385Z,11.50
2017-11-16T00:17:46.810Z,11.55
2017-11-16T00:20:21.137Z,10.57
2017-11-16T00:22:55.683Z,11.10
2017-11-16T00:25:30.205Z,10.60
2017-11-16T00:28:04.550Z,13.02
2017-11-16T00:30:38.876Z,11.48
2017-11-16T00:33:13.205Z,11.40
2017-11-16T00:35:47.575Z,12.02
2017-11-16T00:38:22.043Z,12.07
2017-11-16T00:40:56.471Z,12.30
2017-11-16T00:43:30.820Z,13.70
2017-11-16T00:46:05.169Z,12.75
2017-11-16T00:48:39.725Z,12.37
2017-11-16T00:51:14.372Z,13.13
2017-11-16T00:53:48.828Z,12.73
2017-11-16T00:56:23.841Z,12.00
2017-11-16T00:58:58.910Z,13.40
2017-11-16T01:01:33.448Z,13.65
2017-11-16T01:04:07.919Z,14.23
2017-11-16T01:06:42.308Z,12.95
2017-11-16T01:09:16.869Z,13.00
2017-11-16T01:11:51.232Z,12.30
2017-11-16T01:14:25.756Z,14.00
2017-11-16T01:17:00.259Z,13.88
2017-11-16T01:19:34.611Z,14.00
2017-11-16T01:22:09.099Z,14.90
2017-11-16T01:24:43.500Z,13.70
2017-11-16T01:27:17.923Z,12.65
2017-11-16T01:29:52.388Z,12.95
2017-11-16T01:32:26.839Z,13.43
2017-11-16T01:35:01.292Z,13.10
2017-11-16T01:37:35.692Z,12.77
2017-11-16T01:40:10.011Z,13.13
2017-11-16T01:42:44.489Z,13.48
2017-11-16T01:45:18.986Z,12.90
2017-11-16T01:47:53.333Z,12.95
2017-11-16T01:50:27.953Z,12.77
2017-11-16T01:53:02.408Z,12.93
2017-11-16T01:55:36.882Z,12.43
2017-11-16T01:58:12.065Z,13.88
2017-11-16T02:00:46.535Z,13.10
2017-11-16T02:03:21.049Z,13.57
2017-11-16T02:05:55.528Z,13.70
2017-11-16T02:08:30.043Z,13.45
2017-11-16T02:11:04.472Z,13.85
2017-11-16T02:13:39.013Z,12.80
2017-11-16T02:16:13.430Z,12.75
2017-11-16T02:18:47.878Z,14.45
2017-11-16T02:21:22.487Z,13.38
2017-11-16T02:23:56.900Z,13.85
2017-11-16T02:26:31.332Z,12.70
2017-11-16T02:29:05.766Z,13.05
2017-11-16T02:31:41.237Z,15.82
2017-11-16T02:34:15.679Z,13.57
2017-11-16T02:36:50.120Z,14.87
2017-11-16T02:39:24.606Z,15.57
2017-11-16T02:41:58.969Z,16.65
2017-11-16T02:44:33.337Z,16.77
2017-11-16T02:47:07.779Z,16.17
2017-11-16T02:49:42.184Z,15.32
2017-11-16T02:52:16.653Z,19.45
2017-11-16T02:54:51.167Z,16.08
2017-11-16T02:57:25.669Z,18.48
2017-11-16T03:00:00.037Z,17.37
2017-11-16T03:02:35.213Z,16.10
2017-11-16T03:05:09.665Z,18.15
2017-11-16T03:07:44.121Z,18.35
2017-11-16T03:10:19.300Z,19.25
2017-11-16T03:12:53.764Z,19.05
2017-11-16T03:15:28.063Z,19.55
2017-11-16T03:18:02.506Z,19.30
2017-11-16T03:20:36.993Z,19.00
2017-11-16T03:23:11.448Z,18.10
2017-11-16T03:25:45.982Z,20.73
2017-11-16T03:28:20.412Z,20.05
2017-11-16T03:30:55.679Z,20.65
2017-11-16T03:33:30.945Z,21.17
2017-11-16T03:36:05.361Z,21.75
2017-11-16T03:38:39.899Z,21.85
2017-11-16T03:41:15.144Z,20.70
2017-11-16T03:43:49.484Z,21.33
2017-11-16T03:46:23.882Z,21.45
2017-11-16T03:48:59.068Z,21.67
2017-11-16T03:51:33.469Z,22.23
2017-11-16T03:54:07.837Z,22.60
2017-11-16T03:56:42.238Z,23.33
2017-11-16T03:59:16.747Z,21.70
2017-11-16T04:01:51.253Z,23.65
2017-11-16T04:04:25.772Z,23.85
2017-11-16T04:07:00.181Z,24.83
2017-11-16T04:09:34.737Z,21.37
2017-11-16T04:12:09.879Z,24.85
2017-11-16T04:14:44.382Z,23.90
2017-11-16T04:17:18.801Z,23.90
2017-11-16T04:19:53.149Z,26.85
2017-11-16T04:22:27.454Z,21.25
2017-11-16T04:25:01.999Z,25.10
2017-11-16T04:27:36.440Z,21.37
2017-11-16T04:30:10.906Z,23.23
2017-11-16T04:32:45.337Z,21.37
2017-11-16T04:35:19.674Z,22.08
2017-11-16T04:37:53.999Z,24.55
2017-11-16T04:40:28.560Z,20.70
2017-11-16T04:43:02.896Z,20.80
2017-11-16T04:45:37.267Z,23.08
2017-11-16T04:48:11.712Z,21.23
2017-11-16T04:50:46.061Z,24.30
2017-11-16T04:53:20.347Z,26.42
2017-11-16T04:55:54.690Z,29.15
2017-11-16T04:58:29.173Z,24.40
2017-11-16T05:01:03.655Z,28.45
2017-11-16T05:03:38.797Z,24.15
2017-11-16T05:06:13.239Z,22.42
2017-11-16T05:08:47.732Z,23.75
2017-11-16T05:11:22.155Z,31.77
2017-11-16T05:13:56.634Z,26.70
2017-11-16T05:16:30.970Z,27.00
2017-11-16T05:19:06.064Z,28.92
2017-11-16T05:21:40.422Z,27.95
2017-11-16T05:24:14.796Z,27.70
2017-11-16T05:26:49.174Z,28.38
2017-11-16T05:29:23.718Z,32.05
2017-11-16T05:31:58.202Z,26.12
2017-11-16T05:34:32.724Z,32.45
2017-11-16T05:37:07.129Z,27.08
2017-11-16T05:39:41.596Z,29.30
2017-11-16T05:42:15.886Z,28.83
2017-11-16T05:44:50.191Z,31.17
2017-11-16T05:47:24.506Z,34.30
2017-11-16T05:49:58.904Z,29.02
2017-11-16T05:52:33.349Z,35.90
2017-11-16T05:55:07.921Z,30.70
2017-11-16T05:57:42.296Z,35.10
2017-11-16T06:00:16.739Z,34.65
2017-11-16T06:02:51.165Z,37.38
2017-11-16T06:05:25.492Z,34.47
2017-11-16T06:08:00.710Z,32.33
2017-11-16T06:10:35.154Z,34.85
2017-11-16T06:13:10.340Z,33.33
2017-11-16T06:15:44.809Z,34.35
2017-11-16T06:18:19.276Z,33.47
2017-11-16T06:20:53.699Z,31.65
2017-11-16T06:23:28.034Z,33.72
2017-11-16T06:26:03.279Z,30.12
2017-11-16T06:28:37.666Z,34.15
2017-11-16T06:31:12.938Z,35.92
2017-11-16T06:33:47.224Z,34.38
2017-11-16T06:36:21.563Z,30.50
2017-11-16T06:38:56.028Z,35.90
2017-11-16T06:41:31.244Z,39.00
2017-11-16T06:44:05.541Z,34.63
2017-11-16T06:46:40.700Z,37.28
2017-11-16T06:49:15.009Z,34.35
2017-11-16T06:51:50.145Z,34.28
2017-11-16T06:54:24.648Z,36.28
2017-11-16T06:56:59.069Z,34.97
2017-11-16T06:59:34.289Z,35.83
2017-11-16T07:02:09.462Z,35.15
2017-11-16T07:04:43.785Z,37.05
2017-11-16T07:07:18.253Z,34.85
2017-11-16T07:09:52.780Z,37.42
2017-11-16T07:12:27.115Z,34.67
2017-11-16T07:15:01.431Z,37.13
2017-11-16T07:17:35.823Z,35.65
2017-11-16T07:20:10.276Z,34.85
2017-11-16T07:22:44.689Z,33.13
2017-11-16T07:25:19.220Z,30.75
2017-11-16T07:27:53.729Z,28.00
2017-11-16T07:30:28.205Z,32.53
2017-11-16T07:33:02.557Z,27.15
2017-11-16T07:35:37.036Z,29.73
2017-11-16T07:38:11.493Z,27.02
2017-11-16T07:40:49.316Z,35.35
2017-11-16T07:43:24.423Z,34.70
2017-11-16T07:45:59.013Z,32.55
2017-11-16T07:48:33.431Z,32.58
2017-11-16T07:51:07.929Z,34.80
2017-11-16T07:53:43.037Z,31.87
2017-11-16T07:56:17.408Z,31.45
2017-11-16T07:58:51.909Z,34.20
2017-11-16T08:01:26.392Z,33.40
2017-11-16T08:04:00.814Z,32.40
2017-11-16T08:06:35.164Z,31.48
2017-11-16T08:09:09.574Z,35.00
2017-11-16T08:11:44.838Z,31.20
2017-11-16T08:14:19.338Z,31.35
2017-11-16T08:16:54.559Z,30.75
2017-11-16T08:19:29.017Z,28.73
2017-11-16T08:22:03.469Z,27.42
2017-11-16T08:24:38.752Z,30.23
2017-11-16T08:27:13.256Z,25.95
2017-11-16T08:29:48.412Z,29.35
2017-11-16T08:32:23.028Z,25.42
2017-11-16T08:34:57.345Z,25.08
2017-11-16T08:37:31.704Z,23.73
2017-11-16T08:40:06.190Z,28.87
2017-11-16T08:42:40.591Z,27.62
2017-11-16T08:45:15.857Z,26.90
2017-11-16T08:47:51.178Z,22.27
2017-11-16T08:50:25.629Z,22.05
2017-11-16T08:53:00.045Z,28.38
2017-11-16T08:55:34.943Z,27.27
2017-11-16T08:58:10.290Z,26.42
2017-11-16T09:00:44.730Z,26.80
2017-11-16T09:03:19.253Z,28.12
2017-11-16T09:05:53.732Z,23.52
2017-11-16T09:08:28.097Z,22.45
2017-11-16T09:11:02.537Z,22.87
2017-11-16T09:13:36.932Z,22.80
2017-11-16T09:16:11.226Z,23.30
2017-11-16T09:18:45.548Z,21.40
2017-11-16T09:21:20.072Z,25.35
2017-11-16T09:23:54.600Z,21.02
2017-11-16T09:26:28.913Z,25.42
2017-11-16T09:29:03.425Z,25.58
2017-11-16T09:31:38.641Z,24.58
2017-11-16T09:34:13.909Z,19.67
2017-11-16T09:36:48.313Z,22.48
2017-11-16T09:39:22.801Z,12.93
2017-11-16T09:41:57.264Z,26.77
2017-11-16T09:44:32.428Z,22.77
2017-11-16T09:47:06.761Z,22.23
2017-11-16T09:49:41.156Z,18.05
2017-11-16T09:52:15.641Z,25.33
2017-11-16T09:54:50.912Z,24.45
2017-11-16T09:57:25.324Z,18.58
2017-11-16T09:59:59.665Z,25.35
2017-11-16T10:02:33.949Z,27.70
2017-11-16T10:05:08.309Z,24.50
2017-11-16T10:07:42.965Z,30.00
2017-11-16T10:10:17.389Z,26.25
2017-11-16T10:12:51.926Z,28.25
2017-11-16T10:15:26.346Z,16.50
2017-11-16T10:18:00.856Z,19.37
2017-11-16T10:20:35.190Z,24.37
2017-11-16T10:23:09.713Z,29.00
2017-11-16T10:25:44.938Z,18.67
2017-11-16T10:28:20.172Z,22.08
2017-11-16T10:30:54.508Z,28.35
2017-11-16T10:33:28.958Z,24.70
2017-11-16T10:36:04.481Z,27.35
2017-11-16T10:38:38.995Z,28.17
2017-11-16T10:41:14.115Z,25.85
2017-11-16T10:43:48.640Z,27.92
2017-11-16T10:46:23.047Z,28.12
2017-11-16T10:48:57.537Z,26.40
2017-11-16T10:51:32.007Z,24.12
2017-11-16T10:54:06.404Z,21.65
2017-11-16T10:56:40.768Z,27.80
2017-11-16T10:59:15.165Z,28.35
2017-11-16T11:01:49.577Z,30.15
2017-11-16T11:04:24.012Z,27.20
2017-11-16T11:06:59.134Z,28.52
2017-11-16T11:09:33.498Z,32.50
2017-11-16T11:12:08.688Z,28.92
2017-11-16T11:14:43.022Z,28.67
2017-11-16T11:17:17.498Z,31.77
2017-11-16T11:19:51.942Z,26.00
2017-11-16T11:22:26.297Z,27.02
2017-11-16T11:25:01.505Z,29.70
2017-11-16T11:27:36.242Z,32.25
2017-11-16T11:30:10.551Z,27.55
2017-11-16T11:32:45.027Z,33.00
2017-11-16T11:35:19.434Z,27.87
2017-11-16T11:37:54.691Z,26.58
2017-11-16T11:40:29.154Z,22.65
2017-11-16T11:43:04.305Z,17.12
2017-11-16T11:45:38.688Z,29.37
2017-11-16T11:48:13.211Z,28.08
2017-11-16T11:50:47.758Z,24.55
2017-11-16T11:53:22.903Z,26.80
2017-11-16T11:55:58.119Z,16.35
2017-11-16T11:58:32.524Z,17.15
2017-11-16T12:01:06.837Z,14.27
2017-11-16T12:03:41.309Z,23.23
2017-11-16T12:06:15.777Z,24.90
2017-11-16T12:08:50.113Z,23.85
2017-11-16T12:11:25.235Z,19.60
2017-11-16T12:14:00.500Z,21.40
2017-11-16T12:16:34.934Z,25.85
2017-11-16T12:19:09.273Z,22.55
2017-11-16T12:21:44.457Z,24.80
2017-11-16T12:24:18.895Z,20.55
2017-11-16T12:26:53.428Z,20.33
2017-11-16T12:29:27.805Z,22.08
2017-11-16T12:32:02.324Z,17.73
2017-11-16T12:34:36.795Z,20.50
2017-11-16T12:37:11.140Z,20.27
2017-11-16T12:39:45.579Z,25.30
2017-11-16T12:42:20.033Z,23.73
2017-11-16T12:44:54.491Z,18.55
2017-11-16T12:47:29.005Z,20.27
2017-11-16T12:50:03.461Z,17.77
2017-11-16T12:52:37.901Z,15.20
2017-11-16T12:55:12.421Z,26.17
2017-11-16T12:57:46.886Z,23.98
2017-11-16T13:00:21.381Z,19.80
2017-11-16T13:02:55.903Z,21.65
2017-11-16T13:05:31.118Z,23.35
2017-11-16T13:08:05.427Z,23.70
2017-11-16T13:10:39.854Z,15.88
2017-11-16T13:13:14.169Z,22.87
2017-11-16T13:15:48.587Z,21.35
2017-11-16T13:18:23.027Z,22.95
2017-11-16T13:20:57.528Z,19.87
2017-11-16T13:23:31.879Z,22.50
2017-11-16T13:26:06.209Z,24.60
2017-11-16T13:28:40.680Z,21.42
2017-11-16T13:31:15.012Z,21.67
2017-11-16T13:33:49.396Z,20.48
2017-11-16T13:36:23.730Z,19.00
2017-11-16T13:38:58.217Z,23.12
2017-11-16T13:41:32.715Z,21.35
2017-11-16T13:44:07.146Z,20.10
2017-11-16T13:46:41.618Z,23.58
2017-11-16T13:49:16.074Z,24.92
2017-11-16T13:51:50.547Z,21.77
2017-11-16T13:54:24.993Z,19.25
2017-11-16T13:56:59.452Z,24.63
2017-11-16T13:59:33.785Z,25.35
2017-11-16T14:02:08.163Z,28.10
2017-11-16T14:04:42.572Z,21.60
2017-11-16T14:07:16.918Z,22.73
2017-11-16T14:09:52.104Z,26.55
2017-11-16T14:12:26.468Z,27.67
2017-11-16T14:15:00.842Z,24.12
2017-11-16T14:17:35.202Z,26.02
2017-11-16T14:20:09.610Z,28.48
2017-11-16T14:22:43.925Z,25.05
2017-11-16T14:25:18.412Z,24.70
2017-11-16T14:27:52.897Z,26.45
2017-11-16T14:30:27.383Z,25.58
2017-11-16T14:33:01.681Z,25.92
2017-11-16T14:35:36.084Z,21.45
2017-11-16T14:38:10.492Z,23.00
2017-11-16T14:40:44.841Z,24.63
2017-11-16T14:43:19.152Z,22.08
2017-11-16T14:45:53.572Z,24.65
2017-11-16T14:48:27.907Z,17.75
2017-11-16T14:51:03.174Z,26.90
2017-11-16T14:53:37.497Z,21.20
2017-11-16T14:56:11.977Z,29.50
2017-11-16T14:58:46.476Z,23.10
2017-11-16T15:01:20.838Z,23.65
2017-11-16T15:03:55.300Z,28.02
2017-11-16T15:06:29.657Z,10.52
2017-11-16T15:09:03.998Z,25.73
2017-11-16T15:11:38.408Z,30.10
2017-11-16T15:14:12.929Z,27.67
2017-11-16T15:16:47.407Z,25.00
2017-11-16T15:19:21.877Z,22.70
2017-11-16T15:21:56.206Z,25.60
2017-11-16T15:24:30.651Z,27.37
2017-11-16T15:27:05.113Z,28.60
2017-11-16T15:29:39.603Z,21.17
2017-11-16T15:32:14.033Z,23.75
2017-11-16T15:34:48.509Z,21.05
2017-11-16T15:37:23.014Z,24.65
2017-11-16T15:39:57.544Z,26.87
2017-11-16T15:42:32.048Z,26.67
2017-11-16T15:45:06.388Z,27.23
2017-11-16T15:47:40.856Z,21.80
2017-11-16T15:50:15.208Z,31.58
2017-11-16T15:52:49.579Z,29.65
2017-11-16T15:55:24.032Z,31.33
2017-11-16T15:57:58.465Z,23.70
2017-11-16T16:00:32.970Z,24.55
2017-11-16T16:03:07.464Z,31.00
2017-11-16T16:05:41.933Z,32.90
2017-11-16T16:08:16.328Z,29.95
2017-11-16T16:10:50.858Z,30.58
2017-11-16T16:13:25.464Z,32.72
2017-11-16T16:15:59.831Z,30.88
2017-11-16T16:18:34.325Z,29.10
2017-11-16T16:21:08.774Z,26.83
2017-11-16T16:23:44.289Z,31.75
2017-11-16T16:26:18.772Z,32.85
2017-11-16T16:28:53.945Z,24.83
2017-11-16T16:31:29.185Z,28.30
2017-11-16T16:34:03.652Z,26.45
2017-11-16T16:36:38.079Z,35.85
2017-11-16T16:39:13.265Z,31.05
2017-11-16T16:41:47.778Z,37.60
2017-11-16T16:44:22.101Z,27.33
2017-11-16T16:46:56.772Z,28.87
2017-11-16T16:49:32.116Z,34.33
2017-11-16T16:52:06.582Z,37.03
2017-11-16T16:54:40.904Z,34.70
2017-11-16T16:57:16.161Z,31.37
2017-11-16T16:59:50.700Z,34.25
2017-11-16T17:02:25.149Z,36.72
2017-11-16T17:04:59.687Z,30.67
2017-11-16T17:07:33.987Z,38.30
2017-11-16T17:10:08.334Z,39.13
2017-11-16T17:12:42.775Z,33.53
2017-11-16T17:15:17.201Z,43.17
2017-11-16T17:17:51.586Z,40.83
2017-11-16T17:20:25.975Z,39.70
2017-11-16T17:23:00.592Z,28.08
2017-11-16T17:25:35.055Z,36.42
2017-11-16T17:28:09.512Z,30.20
2017-11-16T17:30:45.047Z,35.40
2017-11-16T17:33:19.378Z,29.17
2017-11-16T17:35:53.902Z,37.28
2017-11-16T17:38:28.439Z,35.85
2017-11-16T17:41:03.001Z,33.20
2017-11-16T17:43:37.589Z,26.37
2017-11-16T17:46:12.122Z,33.35
2017-11-16T17:48:46.714Z,33.13
2017-11-16T17:51:21.298Z,31.52
2017-11-16T17:53:55.810Z,39.67
2017-11-16T17:56:30.205Z,30.77
2017-11-16T17:59:04.839Z,38.72
2017-11-16T18:01:39.401Z,34.13
2017-11-16T18:04:14.628Z,39.35
2017-11-16T18:06:49.034Z,26.27
2017-11-16T18:09:23.545Z,36.30
2017-11-16T18:11:58.538Z,22.80
2017-11-16T18:14:33.174Z,33.80
2017-11-16T18:17:07.659Z,33.97
2017-11-16T18:19:42.021Z,32.03
2017-11-16T18:22:16.409Z,29.42
2017-11-16T18:24:50.920Z,24.37
2017-11-16T18:27:26.187Z,21.12
2017-11-16T18:30:00.519Z,28.10
2017-11-16T18:32:35.001Z,40.40
2017-11-16T18:35:09.470Z,24.05
2017-11-16T18:37:43.942Z,34.28
2017-11-16T18:40:19.023Z,30.48
2017-11-16T18:42:53.394Z,25.50
2017-11-16T18:45:28.645Z,25.77
2017-11-16T18:48:03.036Z,36.97
2017-11-16T18:50:38.172Z,28.12
2017-11-16T18:53:12.725Z,34.58
2017-11-16T18:55:47.171Z,35.95
2017-11-16T18:58:22.204Z,34.53
2017-11-16T19:00:56.807Z,38.08
2017-11-16T19:03:31.218Z,31.83
2017-11-16T19:06:05.665Z,30.83
2017-11-16T19:08:40.251Z,31.92
2017-11-16T19:11:14.745Z,28.20
2017-11-16T19:13:49.314Z,30.52
2017-11-16T19:16:23.844Z,31.25
2017-11-16T19:18:58.438Z,22.83
2017-11-16T19:21:32.960Z,24.45
2017-11-16T19:24:07.453Z,27.42
2017-11-16T19:26:41.937Z,29.83
2017-11-16T19:29:16.438Z,30.80
2017-11-16T19:31:51.938Z,36.70
2017-11-16T19:34:27.257Z,28.30
2017-11-16T19:37:01.957Z,24.15
2017-11-16T19:39:36.421Z,29.83
2017-11-16T19:42:10.963Z,25.52
2017-11-16T19:44:45.417Z,14.57
2017-11-16T19:47:20.201Z,25.75
2017-11-16T19:49:54.901Z,32.67
2017-11-16T19:52:30.522Z,25.10
2017-11-16T19:55:04.966Z,27.85
2017-11-16T19:57:39.761Z,30.08
2017-11-16T20:00:14.208Z,23.15
2017-11-16T20:02:48.859Z,26.10
2017-11-16T20:05:23.489Z,25.88
2017-11-16T20:07:57.875Z,22.70
2017-11-16T20:10:32.643Z,29.00
2017-11-16T20:13:07.521Z,24.40
2017-11-16T20:15:42.216Z,34.00
2017-11-16T20:18:17.812Z,30.70
2017-11-16T20:20:52.373Z,30.10
2017-11-16T20:23:27.206Z,32.20
2017-11-16T20:26:02.290Z,25.05
2017-11-16T20:28:37.402Z,30.80
2017-11-16T20:31:12.131Z,30.80
2017-11-16T20:33:47.661Z,20.75
2017-11-16T20:36:22.421Z,20.75
2017-11-16T20:42:00.805Z,32.47
2017-11-16T20:44:53.195Z,26.85
2017-11-16T20:47:33.301Z,29.75
2017-11-16T20:53:15.690Z,31.58
2017-11-16T20:55:50.358Z,28.30
2017-11-16T20:58:25.642Z,26.92
2017-11-16T21:01:00.261Z,24.67
2017-11-16T21:03:35.135Z,26.83
2017-11-16T21:06:09.763Z,22.30
2017-11-16T21:08:44.110Z,26.40
2017-11-16T21:11:18.576Z,25.55
2017-11-16T21:13:53.474Z,30.02
2017-11-16T21:16:28.581Z,30.95
2017-11-16T21:19:03.007Z,28.45
2017-11-16T21:21:37.336Z,22.55
2017-11-16T21:24:11.831Z,29.20
2017-11-16T21:26:46.138Z,17.58
2017-11-16T21:29:20.764Z,27.73
2017-11-16T21:31:55.246Z,29.42
2017-11-16T21:34:30.202Z,21.87
2017-11-16T21:37:04.601Z,23.42
2017-11-16T21:39:39.143Z,9.40
2017-11-16T21:42:14.389Z,11.73
2017-11-16T21:44:48.808Z,4.80
2017-11-16T21:47:23.264Z,5.95
2017-11-16T21:49:57.783Z,4.00
2017-11-16T21:52:32.078Z,3.30
2017-11-16T21:55:06.389Z,2.92
2017-11-16T21:57:40.925Z,2.90
2017-11-16T22:00:15.367Z,2.53
2017-11-16T22:02:49.803Z,2.30
2017-11-16T22:05:25.140Z,3.20
2017-11-16T22:07:59.583Z,1.40
2017-11-16T22:10:34.117Z,2.65
2017-11-16T22:13:08.669Z,3.53
2017-11-16T22:15:43.068Z,1.90
2017-11-16T22:18:17.347Z,3.00
2017-11-16T22:20:51.746Z,2.83
2017-11-16T22:23:26.194Z,2.25
2017-11-16T22:26:00.635Z,4.55
2017-11-16T22:28:35.065Z,2.50
2017-11-16T22:31:09.486Z,5.10
2017-11-16T22:33:43.965Z,4.20
2017-11-16T22:36:18.426Z,3.33
2017-11-16T22:38:52.733Z,5.80
2017-11-16T22:41:27.983Z,4.57
2017-11-16T22:44:02.453Z,4.00
2017-11-16T22:46:36.927Z,5.75
2017-11-16T22:49:11.357Z,4.82
2017-11-16T22:51:45.864Z,3.22
2017-11-16T22:54:20.289Z,3.62
2017-11-16T22:56:54.742Z,3.60
2017-11-16T22:59:29.158Z,4.43
2017-11-16T23:02:03.704Z,2.10
2017-11-16T23:04:38.186Z,1.80
2017-11-16T23:07:12.604Z,2.50
2017-11-16T23:09:47.009Z,2.33
2017-11-16T23:12:21.371Z,2.25
2017-11-16T23:14:56.469Z,2.62
2017-11-16T23:17:30.932Z,3.17
2017-11-16T23:20:05.363Z,2.60
2017-11-16T23:22:39.816Z,2.35
2017-11-16T23:25:14.134Z,2.30
2017-11-16T23:27:48.413Z,1.85
2017-11-16T23:30:23.761Z,2.42
2017-11-16T23:32:58.214Z,2.60
2017-11-16T23:35:32.676Z,3.30
2017-11-16T23:38:07.090Z,2.85
2017-11-16T23:40:41.398Z,3.45
2017-11-16T23:43:15.827Z,5.75
2017-11-16T23:45:51.057Z,3.60
2017-11-16T23:48:25.526Z,3.15
2017-11-16T23:50:59.995Z,3.00
2017-11-16T23:53:34.278Z,1.95
2017-11-16T23:56:08.710Z,2.42
2017-11-16T23:58:43.294Z,3.22
